sensor_id;sensor_type;location;lat;lon;timestamp;P1;durP1;ratioP1;P2;durP2;ratioP2
13891;SDS011;7016;48.172;8.058;2023-07-22T00:01:24;5.18;;;2.85;;
13891;SDS011;7016;48.172;8.058;2023-07-22T00:03:49;4.28;;;2.60;;
13891;SDS011;7016;48.172;8.058;2023-07-22T00:06:15;4.80;;;2.72;;
13891;SDS011;7016;48.172;8.058;2023-07-22T00:08:41;3.72;;;2.60;;
13891;SDS011;7016;48.172;8.058;2023-07-22T00:11:07;3.75;;;2.65;;
13891;SDS011;7016;48.172;8.058;2023-07-22T00:13:35;3.85;;;2.85;;
13891;SDS011;7016;48.172;8.058;2023-07-22T00:16:01;5.50;;;3.00;;
13891;SDS011;7016;48.172;8.058;2023-07-22T00:18:32;5.88;;;2.40;;
13891;SDS011;7016;48.172;8.058;2023-07-22T00:20:58;4.18;;;2.65;;
13891;SDS011;7016;48.172;8.058;2023-07-22T00:23:24;5.13;;;2.60;;
13891;SDS011;7016;48.172;8.058;2023-07-22T00:25:51;3.88;;;2.50;;
13891;SDS011;7016;48.172;8.058;2023-07-22T00:28:16;4.50;;;2.50;;
13891;SDS011;7016;48.172;8.058;2023-07-22T00:30:43;4.82;;;2.45;;
13891;SDS011;7016;48.172;8.058;2023-07-22T00:33:09;3.45;;;2.22;;
13891;SDS011;7016;48.172;8.058;2023-07-22T00:35:35;4.32;;;2.70;;
13891;SDS011;7016;48.172;8.058;2023-07-22T00:38:00;6.00;;;2.90;;
13891;SDS011;7016;48.172;8.058;2023-07-22T00:40:27;6.00;;;2.58;;
13891;SDS011;7016;48.172;8.058;2023-07-22T00:42:55;4.97;;;2.67;;
13891;SDS011;7016;48.172;8.058;2023-07-22T00:45:21;4.60;;;2.72;;
13891;SDS011;7016;48.172;8.058;2023-07-22T00:47:47;4.15;;;2.42;;
13891;SDS011;7016;48.172;8.058;2023-07-22T00:50:13;5.05;;;2.75;;
13891;SDS011;7016;48.172;8.058;2023-07-22T00:52:39;3.50;;;2.50;;
13891;SDS011;7016;48.172;8.058;2023-07-22T00:55:05;3.40;;;2.17;;
13891;SDS011;7016;48.172;8.058;2023-07-22T00:57:31;4.10;;;2.60;;
13891;SDS011;7016;48.172;8.058;2023-07-22T00:59:57;5.72;;;2.85;;
13891;SDS011;7016;48.172;8.058;2023-07-22T01:02:23;4.32;;;2.75;;
13891;SDS011;7016;48.172;8.058;2023-07-22T01:04:49;4.63;;;2.50;;
13891;SDS011;7016;48.172;8.058;2023-07-22T01:07:17;7.00;;;2.80;;
13891;SDS011;7016;48.172;8.058;2023-07-22T01:09:43;11.90;;;2.80;;
13891;SDS011;7016;48.172;8.058;2023-07-22T01:12:09;4.35;;;3.00;;
13891;SDS011;7016;48.172;8.058;2023-07-22T01:14:35;3.38;;;2.70;;
13891;SDS011;7016;48.172;8.058;2023-07-22T01:17:02;4.10;;;2.83;;
13891;SDS011;7016;48.172;8.058;2023-07-22T01:19:32;5.47;;;2.90;;
13891;SDS011;7016;48.172;8.058;2023-07-22T01:22:02;3.85;;;2.70;;
13891;SDS011;7016;48.172;8.058;2023-07-22T01:24:30;4.82;;;2.38;;
13891;SDS011;7016;48.172;8.058;2023-07-22T01:26:56;3.55;;;2.53;;
13891;SDS011;7016;48.172;8.058;2023-07-22T01:29:23;5.25;;;2.63;;
13891;SDS011;7016;48.172;8.058;2023-07-22T01:31:50;4.60;;;2.60;;
13891;SDS011;7016;48.172;8.058;2023-07-22T01:34:17;6.13;;;2.80;;
13891;SDS011;7016;48.172;8.058;2023-07-22T01:36:44;4.25;;;2.63;;
13891;SDS011;7016;48.172;8.058;2023-07-22T01:39:14;6.68;;;2.72;;
13891;SDS011;7016;48.172;8.058;2023-07-22T01:41:41;5.03;;;2.72;;
13891;SDS011;7016;48.172;8.058;2023-07-22T01:44:07;6.40;;;2.92;;
13891;SDS011;7016;48.172;8.058;2023-07-22T01:46:33;5.32;;;2.70;;
13891;SDS011;7016;48.172;8.058;2023-07-22T01:49:00;3.70;;;2.25;;
13891;SDS011;7016;48.172;8.058;2023-07-22T01:51:26;4.50;;;2.83;;
13891;SDS011;7016;48.172;8.058;2023-07-22T01:53:52;3.67;;;2.42;;
13891;SDS011;7016;48.172;8.058;2023-07-22T01:56:18;6.32;;;2.83;;
13891;SDS011;7016;48.172;8.058;2023-07-22T01:58:45;3.42;;;2.17;;
13891;SDS011;7016;48.172;8.058;2023-07-22T02:01:11;3.60;;;2.30;;
13891;SDS011;7016;48.172;8.058;2023-07-22T02:03:40;5.10;;;2.97;;
13891;SDS011;7016;48.172;8.058;2023-07-22T02:06:06;4.57;;;2.65;;
13891;SDS011;7016;48.172;8.058;2023-07-22T02:08:32;4.25;;;2.55;;
13891;SDS011;7016;48.172;8.058;2023-07-22T02:11:02;3.58;;;2.35;;
13891;SDS011;7016;48.172;8.058;2023-07-22T02:13:32;4.40;;;2.75;;
13891;SDS011;7016;48.172;8.058;2023-07-22T02:15:59;4.78;;;2.72;;
13891;SDS011;7016;48.172;8.058;2023-07-22T02:18:26;3.10;;;2.28;;
13891;SDS011;7016;48.172;8.058;2023-07-22T02:20:52;5.53;;;2.72;;
13891;SDS011;7016;48.172;8.058;2023-07-22T02:23:18;5.35;;;2.63;;
13891;SDS011;7016;48.172;8.058;2023-07-22T02:25:44;6.72;;;2.78;;
13891;SDS011;7016;48.172;8.058;2023-07-22T02:28:13;3.97;;;2.45;;
13891;SDS011;7016;48.172;8.058;2023-07-22T02:30:40;5.55;;;2.45;;
13891;SDS011;7016;48.172;8.058;2023-07-22T02:33:06;4.25;;;2.70;;
13891;SDS011;7016;48.172;8.058;2023-07-22T02:35:32;4.55;;;2.80;;
13891;SDS011;7016;48.172;8.058;2023-07-22T02:37:58;3.17;;;2.40;;
13891;SDS011;7016;48.172;8.058;2023-07-22T02:40:24;4.07;;;2.83;;
13891;SDS011;7016;48.172;8.058;2023-07-22T02:42:49;4.22;;;2.90;;
13891;SDS011;7016;48.172;8.058;2023-07-22T02:45:15;4.28;;;2.60;;
13891;SDS011;7016;48.172;8.058;2023-07-22T02:47:40;5.00;;;2.55;;
13891;SDS011;7016;48.172;8.058;2023-07-22T02:50:06;6.03;;;2.85;;
13891;SDS011;7016;48.172;8.058;2023-07-22T02:52:33;4.20;;;2.50;;
13891;SDS011;7016;48.172;8.058;2023-07-22T02:57:39;3.47;;;2.50;;
13891;SDS011;7016;48.172;8.058;2023-07-22T03:00:06;4.13;;;2.40;;
13891;SDS011;7016;48.172;8.058;2023-07-22T03:02:36;4.40;;;2.70;;
13891;SDS011;7016;48.172;8.058;2023-07-22T03:05:03;5.07;;;2.85;;
13891;SDS011;7016;48.172;8.058;2023-07-22T03:07:33;6.03;;;2.42;;
13891;SDS011;7016;48.172;8.058;2023-07-22T03:10:02;4.47;;;2.80;;
13891;SDS011;7016;48.172;8.058;2023-07-22T03:12:28;4.00;;;2.50;;
13891;SDS011;7016;48.172;8.058;2023-07-22T03:14:54;5.90;;;2.80;;
13891;SDS011;7016;48.172;8.058;2023-07-22T03:17:19;3.67;;;2.38;;
13891;SDS011;7016;48.172;8.058;2023-07-22T03:19:45;4.30;;;2.50;;
13891;SDS011;7016;48.172;8.058;2023-07-22T03:22:13;4.75;;;2.65;;
13891;SDS011;7016;48.172;8.058;2023-07-22T03:24:39;4.20;;;2.63;;
13891;SDS011;7016;48.172;8.058;2023-07-22T03:27:05;3.85;;;2.40;;
13891;SDS011;7016;48.172;8.058;2023-07-22T03:29:31;4.18;;;2.58;;
13891;SDS011;7016;48.172;8.058;2023-07-22T03:31:57;5.43;;;2.58;;
13891;SDS011;7016;48.172;8.058;2023-07-22T03:34:25;3.70;;;2.60;;
13891;SDS011;7016;48.172;8.058;2023-07-22T03:36:51;5.25;;;2.65;;
13891;SDS011;7016;48.172;8.058;2023-07-22T03:39:17;4.75;;;2.45;;
13891;SDS011;7016;48.172;8.058;2023-07-22T03:41:43;5.55;;;2.80;;
13891;SDS011;7016;48.172;8.058;2023-07-22T03:44:09;4.70;;;2.97;;
13891;SDS011;7016;48.172;8.058;2023-07-22T03:46:34;5.57;;;2.70;;
13891;SDS011;7016;48.172;8.058;2023-07-22T03:49:00;3.45;;;2.53;;
13891;SDS011;7016;48.172;8.058;2023-07-22T03:51:25;5.10;;;2.67;;
13891;SDS011;7016;48.172;8.058;2023-07-22T03:53:51;3.92;;;2.47;;
13891;SDS011;7016;48.172;8.058;2023-07-22T03:56:17;3.65;;;2.17;;
13891;SDS011;7016;48.172;8.058;2023-07-22T03:58:42;6.18;;;2.90;;
13891;SDS011;7016;48.172;8.058;2023-07-22T04:01:10;3.88;;;2.67;;
13891;SDS011;7016;48.172;8.058;2023-07-22T04:03:36;3.03;;;2.33;;
13891;SDS011;7016;48.172;8.058;2023-07-22T04:06:02;5.63;;;2.83;;
13891;SDS011;7016;48.172;8.058;2023-07-22T04:08:28;4.22;;;2.80;;
13891;SDS011;7016;48.172;8.058;2023-07-22T04:10:54;4.43;;;2.72;;
13891;SDS011;7016;48.172;8.058;2023-07-22T04:13:21;5.20;;;2.50;;
13891;SDS011;7016;48.172;8.058;2023-07-22T04:15:48;4.95;;;2.50;;
13891;SDS011;7016;48.172;8.058;2023-07-22T04:18:17;4.60;;;2.67;;
13891;SDS011;7016;48.172;8.058;2023-07-22T04:20:44;4.38;;;2.60;;
13891;SDS011;7016;48.172;8.058;2023-07-22T04:23:10;5.15;;;2.95;;
13891;SDS011;7016;48.172;8.058;2023-07-22T04:25:40;4.28;;;2.63;;
13891;SDS011;7016;48.172;8.058;2023-07-22T04:28:06;5.50;;;2.67;;
13891;SDS011;7016;48.172;8.058;2023-07-22T04:30:33;5.45;;;2.72;;
13891;SDS011;7016;48.172;8.058;2023-07-22T04:32:59;5.53;;;3.17;;
13891;SDS011;7016;48.172;8.058;2023-07-22T04:35:24;5.75;;;2.72;;
13891;SDS011;7016;48.172;8.058;2023-07-22T04:37:50;4.90;;;2.90;;
13891;SDS011;7016;48.172;8.058;2023-07-22T04:40:18;5.53;;;2.60;;
13891;SDS011;7016;48.172;8.058;2023-07-22T04:42:44;4.57;;;2.60;;
13891;SDS011;7016;48.172;8.058;2023-07-22T04:45:11;4.90;;;2.40;;
13891;SDS011;7016;48.172;8.058;2023-07-22T04:47:37;3.85;;;2.47;;
13891;SDS011;7016;48.172;8.058;2023-07-22T04:50:04;4.55;;;2.88;;
13891;SDS011;7016;48.172;8.058;2023-07-22T04:52:36;4.13;;;2.55;;
13891;SDS011;7016;48.172;8.058;2023-07-22T04:55:02;5.68;;;2.60;;
13891;SDS011;7016;48.172;8.058;2023-07-22T04:57:43;5.97;;;3.03;;
13891;SDS011;7016;48.172;8.058;2023-07-22T05:00:13;3.22;;;2.55;;
13891;SDS011;7016;48.172;8.058;2023-07-22T05:02:41;3.47;;;2.33;;
13891;SDS011;7016;48.172;8.058;2023-07-22T05:05:09;5.93;;;3.33;;
13891;SDS011;7016;48.172;8.058;2023-07-22T05:07:35;5.57;;;2.70;;
13891;SDS011;7016;48.172;8.058;2023-07-22T05:10:00;3.05;;;2.50;;
13891;SDS011;7016;48.172;8.058;2023-07-22T05:12:26;9.63;;;2.88;;
13891;SDS011;7016;48.172;8.058;2023-07-22T05:14:52;4.45;;;2.70;;
13891;SDS011;7016;48.172;8.058;2023-07-22T05:17:17;4.93;;;2.80;;
13891;SDS011;7016;48.172;8.058;2023-07-22T05:19:43;5.22;;;3.10;;
13891;SDS011;7016;48.172;8.058;2023-07-22T05:22:09;4.57;;;2.67;;
13891;SDS011;7016;48.172;8.058;2023-07-22T05:24:35;4.25;;;2.60;;
13891;SDS011;7016;48.172;8.058;2023-07-22T05:27:00;4.65;;;2.80;;
13891;SDS011;7016;48.172;8.058;2023-07-22T05:29:26;6.43;;;2.80;;
13891;SDS011;7016;48.172;8.058;2023-07-22T05:31:52;4.22;;;2.72;;
13891;SDS011;7016;48.172;8.058;2023-07-22T05:34:17;7.50;;;3.00;;
13891;SDS011;7016;48.172;8.058;2023-07-22T05:36:43;4.30;;;2.90;;
13891;SDS011;7016;48.172;8.058;2023-07-22T05:39:08;6.00;;;2.90;;
13891;SDS011;7016;48.172;8.058;2023-07-22T05:41:34;4.45;;;3.10;;
13891;SDS011;7016;48.172;8.058;2023-07-22T05:44:00;5.10;;;3.00;;
13891;SDS011;7016;48.172;8.058;2023-07-22T05:46:26;4.28;;;2.78;;
13891;SDS011;7016;48.172;8.058;2023-07-22T05:48:52;5.03;;;3.08;;
13891;SDS011;7016;48.172;8.058;2023-07-22T05:51:17;3.92;;;2.50;;
13891;SDS011;7016;48.172;8.058;2023-07-22T05:53:43;5.25;;;3.60;;
13891;SDS011;7016;48.172;8.058;2023-07-22T05:56:09;7.47;;;3.60;;
13891;SDS011;7016;48.172;8.058;2023-07-22T05:58:35;6.00;;;3.17;;
13891;SDS011;7016;48.172;8.058;2023-07-22T06:01:01;6.47;;;3.55;;
13891;SDS011;7016;48.172;8.058;2023-07-22T06:03:27;8.73;;;3.28;;
13891;SDS011;7016;48.172;8.058;2023-07-22T06:05:53;5.03;;;3.30;;
13891;SDS011;7016;48.172;8.058;2023-07-22T06:08:19;7.00;;;3.63;;
13891;SDS011;7016;48.172;8.058;2023-07-22T06:10:44;4.85;;;3.50;;
13891;SDS011;7016;48.172;8.058;2023-07-22T06:13:10;7.80;;;3.47;;
13891;SDS011;7016;48.172;8.058;2023-07-22T06:15:36;6.60;;;3.33;;
13891;SDS011;7016;48.172;8.058;2023-07-22T06:18:02;10.35;;;4.07;;
13891;SDS011;7016;48.172;8.058;2023-07-22T06:20:28;6.97;;;3.65;;
13891;SDS011;7016;48.172;8.058;2023-07-22T06:22:54;7.30;;;3.58;;
13891;SDS011;7016;48.172;8.058;2023-07-22T06:25:20;7.15;;;3.30;;
13891;SDS011;7016;48.172;8.058;2023-07-22T06:27:45;6.05;;;3.80;;
13891;SDS011;7016;48.172;8.058;2023-07-22T06:30:11;5.20;;;3.20;;
13891;SDS011;7016;48.172;8.058;2023-07-22T06:32:37;5.00;;;3.30;;
13891;SDS011;7016;48.172;8.058;2023-07-22T06:35:04;4.57;;;3.25;;
13891;SDS011;7016;48.172;8.058;2023-07-22T06:37:30;5.20;;;3.20;;
13891;SDS011;7016;48.172;8.058;2023-07-22T06:39:55;4.18;;;3.05;;
13891;SDS011;7016;48.172;8.058;2023-07-22T06:42:21;10.13;;;3.28;;
13891;SDS011;7016;48.172;8.058;2023-07-22T06:44:47;5.07;;;3.33;;
13891;SDS011;7016;48.172;8.058;2023-07-22T06:47:13;4.25;;;2.92;;
13891;SDS011;7016;48.172;8.058;2023-07-22T06:49:39;5.47;;;3.10;;
13891;SDS011;7016;48.172;8.058;2023-07-22T06:52:06;5.45;;;2.92;;
13891;SDS011;7016;48.172;8.058;2023-07-22T06:54:32;4.00;;;2.88;;
13891;SDS011;7016;48.172;8.058;2023-07-22T06:56:59;5.60;;;3.40;;
13891;SDS011;7016;48.172;8.058;2023-07-22T06:59:24;6.25;;;3.25;;
13891;SDS011;7016;48.172;8.058;2023-07-22T07:01:51;7.50;;;3.25;;
13891;SDS011;7016;48.172;8.058;2023-07-22T07:04:17;6.32;;;3.65;;
13891;SDS011;7016;48.172;8.058;2023-07-22T07:06:42;7.40;;;3.10;;
13891;SDS011;7016;48.172;8.058;2023-07-22T07:09:08;5.70;;;2.90;;
13891;SDS011;7016;48.172;8.058;2023-07-22T07:11:34;5.32;;;2.75;;
13891;SDS011;7016;48.172;8.058;2023-07-22T07:13:59;6.00;;;3.30;;
13891;SDS011;7016;48.172;8.058;2023-07-22T07:16:26;6.50;;;2.85;;
13891;SDS011;7016;48.172;8.058;2023-07-22T07:18:53;6.15;;;2.72;;
13891;SDS011;7016;48.172;8.058;2023-07-22T07:21:20;5.50;;;2.65;;
13891;SDS011;7016;48.172;8.058;2023-07-22T07:23:47;7.07;;;3.38;;
13891;SDS011;7016;48.172;8.058;2023-07-22T07:26:13;6.25;;;3.38;;
13891;SDS011;7016;48.172;8.058;2023-07-22T07:28:39;5.88;;;3.10;;
13891;SDS011;7016;48.172;8.058;2023-07-22T07:31:04;5.93;;;2.90;;
13891;SDS011;7016;48.172;8.058;2023-07-22T07:33:30;7.07;;;3.50;;
13891;SDS011;7016;48.172;8.058;2023-07-22T07:35:56;4.10;;;2.60;;
13891;SDS011;7016;48.172;8.058;2023-07-22T07:38:22;7.65;;;3.22;;
13891;SDS011;7016;48.172;8.058;2023-07-22T07:40:51;5.47;;;2.80;;
13891;SDS011;7016;48.172;8.058;2023-07-22T07:43:38;5.47;;;3.17;;
13891;SDS011;7016;48.172;8.058;2023-07-22T07:48:42;6.88;;;2.70;;
13891;SDS011;7016;48.172;8.058;2023-07-22T07:51:09;4.50;;;2.60;;
13891;SDS011;7016;48.172;8.058;2023-07-22T07:53:35;10.70;;;2.78;;
13891;SDS011;7016;48.172;8.058;2023-07-22T07:56:01;4.03;;;2.53;;
13891;SDS011;7016;48.172;8.058;2023-07-22T07:58:26;4.75;;;2.70;;
13891;SDS011;7016;48.172;8.058;2023-07-22T08:00:52;5.75;;;2.78;;
13891;SDS011;7016;48.172;8.058;2023-07-22T08:03:18;6.53;;;3.17;;
13891;SDS011;7016;48.172;8.058;2023-07-22T08:05:43;5.15;;;2.65;;
13891;SDS011;7016;48.172;8.058;2023-07-22T08:08:09;8.43;;;2.92;;
13891;SDS011;7016;48.172;8.058;2023-07-22T08:10:35;7.45;;;2.70;;
13891;SDS011;7016;48.172;8.058;2023-07-22T08:13:01;5.35;;;2.67;;
13891;SDS011;7016;48.172;8.058;2023-07-22T08:15:27;5.85;;;2.38;;
13891;SDS011;7016;48.172;8.058;2023-07-22T08:17:53;6.03;;;2.60;;
13891;SDS011;7016;48.172;8.058;2023-07-22T08:20:19;3.30;;;2.30;;
13891;SDS011;7016;48.172;8.058;2023-07-22T08:22:46;6.75;;;2.35;;
13891;SDS011;7016;48.172;8.058;2023-07-22T08:25:11;6.85;;;2.50;;
13891;SDS011;7016;48.172;8.058;2023-07-22T08:27:37;4.35;;;2.30;;
13891;SDS011;7016;48.172;8.058;2023-07-22T08:30:03;6.88;;;2.50;;
13891;SDS011;7016;48.172;8.058;2023-07-22T08:32:29;6.20;;;2.88;;
13891;SDS011;7016;48.172;8.058;2023-07-22T08:34:54;3.97;;;2.38;;
13891;SDS011;7016;48.172;8.058;2023-07-22T08:37:20;6.18;;;2.70;;
13891;SDS011;7016;48.172;8.058;2023-07-22T08:39:45;5.35;;;2.40;;
13891;SDS011;7016;48.172;8.058;2023-07-22T08:42:11;5.75;;;2.30;;
13891;SDS011;7016;48.172;8.058;2023-07-22T08:44:40;6.65;;;2.30;;
13891;SDS011;7016;48.172;8.058;2023-07-22T08:47:10;7.03;;;2.42;;
13891;SDS011;7016;48.172;8.058;2023-07-22T08:49:40;5.47;;;2.35;;
13891;SDS011;7016;48.172;8.058;2023-07-22T08:52:12;7.18;;;2.85;;
13891;SDS011;7016;48.172;8.058;2023-07-22T08:54:39;5.53;;;2.75;;
13891;SDS011;7016;48.172;8.058;2023-07-22T08:57:05;6.50;;;2.55;;
13891;SDS011;7016;48.172;8.058;2023-07-22T08:59:33;4.78;;;2.10;;
13891;SDS011;7016;48.172;8.058;2023-07-22T09:02:00;6.10;;;2.38;;
13891;SDS011;7016;48.172;8.058;2023-07-22T09:04:26;3.03;;;2.00;;
13891;SDS011;7016;48.172;8.058;2023-07-22T09:06:52;7.78;;;2.22;;
13891;SDS011;7016;48.172;8.058;2023-07-22T09:09:19;3.35;;;2.13;;
13891;SDS011;7016;48.172;8.058;2023-07-22T09:11:47;6.40;;;2.20;;
13891;SDS011;7016;48.172;8.058;2023-07-22T09:14:13;5.30;;;2.15;;
13891;SDS011;7016;48.172;8.058;2023-07-22T09:16:40;5.05;;;1.90;;
13891;SDS011;7016;48.172;8.058;2023-07-22T09:19:06;10.90;;;2.20;;
13891;SDS011;7016;48.172;8.058;2023-07-22T09:21:32;2.78;;;1.90;;
13891;SDS011;7016;48.172;8.058;2023-07-22T09:24:00;2.70;;;1.67;;
13891;SDS011;7016;48.172;8.058;2023-07-22T09:26:26;5.13;;;1.83;;
13891;SDS011;7016;48.172;8.058;2023-07-22T09:28:56;2.15;;;1.60;;
13891;SDS011;7016;48.172;8.058;2023-07-22T09:31:26;1.85;;;1.50;;
13891;SDS011;7016;48.172;8.058;2023-07-22T09:33:53;3.45;;;1.63;;
13891;SDS011;7016;48.172;8.058;2023-07-22T09:36:22;4.20;;;1.73;;
13891;SDS011;7016;48.172;8.058;2023-07-22T09:39:00;2.33;;;1.60;;
13891;SDS011;7016;48.172;8.058;2023-07-22T09:41:28;3.83;;;1.98;;
13891;SDS011;7016;48.172;8.058;2023-07-22T09:43:55;8.95;;;2.00;;
13891;SDS011;7016;48.172;8.058;2023-07-22T09:46:21;3.88;;;1.88;;
13891;SDS011;7016;48.172;8.058;2023-07-22T09:48:55;6.05;;;2.20;;
13891;SDS011;7016;48.172;8.058;2023-07-22T09:51:21;4.53;;;1.92;;
13891;SDS011;7016;48.172;8.058;2023-07-22T09:53:47;4.32;;;1.55;;
13891;SDS011;7016;48.172;8.058;2023-07-22T09:56:14;4.15;;;1.58;;
13891;SDS011;7016;48.172;8.058;2023-07-22T09:58:40;2.85;;;1.50;;
13891;SDS011;7016;48.172;8.058;2023-07-22T10:01:07;3.40;;;1.55;;
13891;SDS011;7016;48.172;8.058;2023-07-22T10:03:37;4.88;;;1.80;;
13891;SDS011;7016;48.172;8.058;2023-07-22T10:06:03;3.42;;;1.80;;
13891;SDS011;7016;48.172;8.058;2023-07-22T10:08:32;4.03;;;1.77;;
13891;SDS011;7016;48.172;8.058;2023-07-22T10:11:00;4.97;;;2.00;;
13891;SDS011;7016;48.172;8.058;2023-07-22T10:13:28;2.58;;;1.60;;
13891;SDS011;7016;48.172;8.058;2023-07-22T10:15:53;2.20;;;1.60;;
13891;SDS011;7016;48.172;8.058;2023-07-22T10:18:19;2.85;;;2.05;;
13891;SDS011;7016;48.172;8.058;2023-07-22T10:20:48;4.57;;;1.70;;
13891;SDS011;7016;48.172;8.058;2023-07-22T10:23:14;3.00;;;1.83;;
13891;SDS011;7016;48.172;8.058;2023-07-22T10:25:40;2.60;;;1.77;;
13891;SDS011;7016;48.172;8.058;2023-07-22T10:28:07;3.53;;;1.73;;
13891;SDS011;7016;48.172;8.058;2023-07-22T10:30:34;3.33;;;1.98;;
13891;SDS011;7016;48.172;8.058;2023-07-22T10:33:00;2.83;;;1.90;;
13891;SDS011;7016;48.172;8.058;2023-07-22T10:37:55;3.63;;;1.90;;
13891;SDS011;7016;48.172;8.058;2023-07-22T10:40:25;3.80;;;2.30;;
13891;SDS011;7016;48.172;8.058;2023-07-22T10:45:32;4.68;;;2.60;;
13891;SDS011;7016;48.172;8.058;2023-07-22T10:48:03;4.25;;;1.95;;
13891;SDS011;7016;48.172;8.058;2023-07-22T10:53:11;4.80;;;2.00;;
13891;SDS011;7016;48.172;8.058;2023-07-22T11:04:09;8.23;;;1.90;;
13891;SDS011;7016;48.172;8.058;2023-07-22T11:07:02;2.40;;;1.88;;
13891;SDS011;7016;48.172;8.058;2023-07-22T11:11:58;2.88;;;1.70;;
13891;SDS011;7016;48.172;8.058;2023-07-22T11:14:31;4.13;;;1.85;;
13891;SDS011;7016;48.172;8.058;2023-07-22T11:17:03;5.10;;;1.73;;
13891;SDS011;7016;48.172;8.058;2023-07-22T11:19:30;3.92;;;1.98;;
13891;SDS011;7016;48.172;8.058;2023-07-22T11:21:56;3.88;;;1.90;;
13891;SDS011;7016;48.172;8.058;2023-07-22T11:24:22;3.45;;;2.03;;
13891;SDS011;7016;48.172;8.058;2023-07-22T11:26:49;3.65;;;1.92;;
13891;SDS011;7016;48.172;8.058;2023-07-22T11:29:15;3.03;;;1.90;;
13891;SDS011;7016;48.172;8.058;2023-07-22T11:31:43;4.97;;;2.38;;
13891;SDS011;7016;48.172;8.058;2023-07-22T11:34:11;5.45;;;2.10;;
13891;SDS011;7016;48.172;8.058;2023-07-22T11:36:37;5.93;;;2.33;;
13891;SDS011;7016;48.172;8.058;2023-07-22T11:39:07;4.50;;;2.00;;
13891;SDS011;7016;48.172;8.058;2023-07-22T11:41:40;3.47;;;2.17;;
13891;SDS011;7016;48.172;8.058;2023-07-22T11:44:07;6.32;;;2.30;;
13891;SDS011;7016;48.172;8.058;2023-07-22T11:46:35;2.97;;;1.92;;
13891;SDS011;7016;48.172;8.058;2023-07-22T11:49:01;3.22;;;1.80;;
13891;SDS011;7016;48.172;8.058;2023-07-22T11:51:27;3.20;;;2.00;;
13891;SDS011;7016;48.172;8.058;2023-07-22T11:53:54;4.07;;;2.20;;
13891;SDS011;7016;48.172;8.058;2023-07-22T11:56:21;3.03;;;1.92;;
13891;SDS011;7016;48.172;8.058;2023-07-22T11:58:48;3.95;;;2.30;;
13891;SDS011;7016;48.172;8.058;2023-07-22T12:01:15;6.70;;;2.63;;
13891;SDS011;7016;48.172;8.058;2023-07-22T12:03:41;4.53;;;2.63;;
13891;SDS011;7016;48.172;8.058;2023-07-22T12:06:07;3.33;;;2.22;;
13891;SDS011;7016;48.172;8.058;2023-07-22T12:08:33;5.22;;;2.10;;
13891;SDS011;7016;48.172;8.058;2023-07-22T12:11:01;6.65;;;2.30;;
13891;SDS011;7016;48.172;8.058;2023-07-22T12:13:27;4.70;;;1.90;;
13891;SDS011;7016;48.172;8.058;2023-07-22T12:16:02;4.68;;;2.40;;
13891;SDS011;7016;48.172;8.058;2023-07-22T12:18:45;4.30;;;2.28;;
13891;SDS011;7016;48.172;8.058;2023-07-22T12:21:12;4.60;;;2.17;;
13891;SDS011;7016;48.172;8.058;2023-07-22T12:23:38;4.50;;;2.20;;
13891;SDS011;7016;48.172;8.058;2023-07-22T12:26:05;5.18;;;2.67;;
13891;SDS011;7016;48.172;8.058;2023-07-22T12:28:30;3.90;;;2.47;;
13891;SDS011;7016;48.172;8.058;2023-07-22T12:30:56;6.90;;;2.72;;
13891;SDS011;7016;48.172;8.058;2023-07-22T12:33:25;3.83;;;2.38;;
13891;SDS011;7016;48.172;8.058;2023-07-22T12:35:55;3.10;;;2.05;;
13891;SDS011;7016;48.172;8.058;2023-07-22T12:38:21;3.72;;;2.30;;
13891;SDS011;7016;48.172;8.058;2023-07-22T12:40:47;4.63;;;2.40;;
13891;SDS011;7016;48.172;8.058;2023-07-22T12:43:13;5.65;;;2.17;;
13891;SDS011;7016;48.172;8.058;2023-07-22T12:45:38;4.65;;;2.55;;
13891;SDS011;7016;48.172;8.058;2023-07-22T12:48:04;4.25;;;2.20;;
13891;SDS011;7016;48.172;8.058;2023-07-22T12:50:30;2.78;;;2.00;;
13891;SDS011;7016;48.172;8.058;2023-07-22T12:52:57;4.68;;;2.10;;
13891;SDS011;7016;48.172;8.058;2023-07-22T12:55:23;4.18;;;2.00;;
13891;SDS011;7016;48.172;8.058;2023-07-22T12:57:49;7.60;;;2.40;;
13891;SDS011;7016;48.172;8.058;2023-07-22T13:00:15;2.85;;;2.08;;
13891;SDS011;7016;48.172;8.058;2023-07-22T13:02:40;6.15;;;2.30;;
13891;SDS011;7016;48.172;8.058;2023-07-22T13:05:06;5.75;;;2.30;;
13891;SDS011;7016;48.172;8.058;2023-07-22T13:07:32;6.35;;;2.38;;
13891;SDS011;7016;48.172;8.058;2023-07-22T13:09:58;3.92;;;2.20;;
13891;SDS011;7016;48.172;8.058;2023-07-22T13:12:26;8.27;;;2.33;;
13891;SDS011;7016;48.172;8.058;2023-07-22T13:14:51;5.40;;;2.05;;
13891;SDS011;7016;48.172;8.058;2023-07-22T13:17:17;3.92;;;2.30;;
13891;SDS011;7016;48.172;8.058;2023-07-22T13:19:43;4.07;;;2.00;;
13891;SDS011;7016;48.172;8.058;2023-07-22T13:22:08;3.13;;;2.15;;
13891;SDS011;7016;48.172;8.058;2023-07-22T13:24:34;3.47;;;1.98;;
13891;SDS011;7016;48.172;8.058;2023-07-22T13:27:00;4.93;;;2.28;;
13891;SDS011;7016;48.172;8.058;2023-07-22T13:29:25;4.30;;;2.13;;
13891;SDS011;7016;48.172;8.058;2023-07-22T13:31:52;3.33;;;2.15;;
13891;SDS011;7016;48.172;8.058;2023-07-22T13:34:18;4.00;;;1.80;;
13891;SDS011;7016;48.172;8.058;2023-07-22T13:36:44;4.32;;;2.13;;
13891;SDS011;7016;48.172;8.058;2023-07-22T13:39:12;3.38;;;2.10;;
13891;SDS011;7016;48.172;8.058;2023-07-22T13:41:38;2.72;;;2.00;;
13891;SDS011;7016;48.172;8.058;2023-07-22T13:44:04;6.93;;;2.50;;
13891;SDS011;7016;48.172;8.058;2023-07-22T13:46:30;5.18;;;2.35;;
13891;SDS011;7016;48.172;8.058;2023-07-22T13:48:56;4.50;;;2.17;;
13891;SDS011;7016;48.172;8.058;2023-07-22T13:51:21;4.88;;;2.58;;
13891;SDS011;7016;48.172;8.058;2023-07-22T13:53:47;6.32;;;2.40;;
13891;SDS011;7016;48.172;8.058;2023-07-22T13:56:13;3.55;;;2.40;;
13891;SDS011;7016;48.172;8.058;2023-07-22T13:58:38;3.13;;;2.22;;
13891;SDS011;7016;48.172;8.058;2023-07-22T14:01:04;7.30;;;2.60;;
13891;SDS011;7016;48.172;8.058;2023-07-22T14:03:30;4.47;;;3.22;;
13891;SDS011;7016;48.172;8.058;2023-07-22T14:05:55;5.00;;;2.58;;
13891;SDS011;7016;48.172;8.058;2023-07-22T14:08:21;4.53;;;3.25;;
13891;SDS011;7016;48.172;8.058;2023-07-22T14:10:47;5.78;;;2.97;;
13891;SDS011;7016;48.172;8.058;2023-07-22T14:13:13;4.80;;;2.83;;
13891;SDS011;7016;48.172;8.058;2023-07-22T14:15:38;3.83;;;2.53;;
13891;SDS011;7016;48.172;8.058;2023-07-22T14:18:04;6.90;;;2.85;;
13891;SDS011;7016;48.172;8.058;2023-07-22T14:20:30;4.22;;;2.58;;
13891;SDS011;7016;48.172;8.058;2023-07-22T14:22:56;4.35;;;2.60;;
13891;SDS011;7016;48.172;8.058;2023-07-22T14:25:22;4.47;;;2.47;;
13891;SDS011;7016;48.172;8.058;2023-07-22T14:27:48;5.60;;;2.60;;
13891;SDS011;7016;48.172;8.058;2023-07-22T14:30:14;4.43;;;2.65;;
13891;SDS011;7016;48.172;8.058;2023-07-22T14:32:39;4.63;;;2.55;;
13891;SDS011;7016;48.172;8.058;2023-07-22T14:35:05;4.30;;;2.45;;
13891;SDS011;7016;48.172;8.058;2023-07-22T14:37:31;8.32;;;2.50;;
13891;SDS011;7016;48.172;8.058;2023-07-22T14:39:57;6.57;;;2.75;;
13891;SDS011;7016;48.172;8.058;2023-07-22T14:42:23;7.53;;;2.63;;
13891;SDS011;7016;48.172;8.058;2023-07-22T14:44:48;8.25;;;2.45;;
13891;SDS011;7016;48.172;8.058;2023-07-22T14:47:14;3.85;;;2.45;;
13891;SDS011;7016;48.172;8.058;2023-07-22T14:49:40;5.38;;;2.40;;
13891;SDS011;7016;48.172;8.058;2023-07-22T14:52:05;3.65;;;2.42;;
13891;SDS011;7016;48.172;8.058;2023-07-22T14:54:31;6.30;;;2.50;;
13891;SDS011;7016;48.172;8.058;2023-07-22T14:56:58;3.75;;;2.20;;
13891;SDS011;7016;48.172;8.058;2023-07-22T14:59:24;5.88;;;2.33;;
13891;SDS011;7016;48.172;8.058;2023-07-22T15:01:51;5.20;;;2.20;;
13891;SDS011;7016;48.172;8.058;2023-07-22T15:04:17;4.22;;;2.50;;
13891;SDS011;7016;48.172;8.058;2023-07-22T15:06:43;3.05;;;2.15;;
13891;SDS011;7016;48.172;8.058;2023-07-22T15:09:09;4.15;;;2.00;;
13891;SDS011;7016;48.172;8.058;2023-07-22T15:11:35;7.72;;;2.42;;
13891;SDS011;7016;48.172;8.058;2023-07-22T15:14:05;3.45;;;2.00;;
13891;SDS011;7016;48.172;8.058;2023-07-22T15:16:31;4.32;;;2.45;;
13891;SDS011;7016;48.172;8.058;2023-07-22T15:18:57;5.50;;;2.28;;
13891;SDS011;7016;48.172;8.058;2023-07-22T15:21:23;2.97;;;2.17;;